createdAt,value
2023-05-17T00:04:30.860Z,2.05
2023-05-17T00:10:34.313Z,2.20
2023-05-17T00:16:37.815Z,1.95
2023-05-17T00:22:43.411Z,2.22
2023-05-17T00:28:46.925Z,2.75
2023-05-17T00:34:50.537Z,2.10
2023-05-17T00:40:55.435Z,2.05
2023-05-17T00:46:59.891Z,2.22
2023-05-17T00:53:03.569Z,2.10
2023-05-17T00:59:08.612Z,2.40
2023-05-17T01:05:12.099Z,2.08
2023-05-17T01:11:21.053Z,2.53
2023-05-17T01:17:29.477Z,2.60
2023-05-17T01:23:39.988Z,2.80
2023-05-17T01:29:45.181Z,2.25
2023-05-17T01:35:48.774Z,2.33
2023-05-17T01:41:57.091Z,2.40
2023-05-17T01:48:09.710Z,3.22
2023-05-17T01:54:13.590Z,2.67
2023-05-17T02:00:17.318Z,2.80
2023-05-17T02:06:22.260Z,2.42
2023-05-17T02:12:26.088Z,2.95
2023-05-17T02:18:29.947Z,2.60
2023-05-17T02:24:34.831Z,2.78
2023-05-17T02:30:40.801Z,3.60
2023-05-17T02:36:44.623Z,2.80
2023-05-17T02:42:49.431Z,3.47
2023-05-17T02:48:52.930Z,2.88
2023-05-17T02:54:56.584Z,3.25
2023-05-17T03:01:01.924Z,3.85
2023-05-17T03:07:07.139Z,3.70
2023-05-17T03:13:10.944Z,4.03
2023-05-17T03:19:16.038Z,3.80
2023-05-17T03:25:19.793Z,3.58
2023-05-17T03:31:23.514Z,3.60
2023-05-17T03:37:28.526Z,3.30
2023-05-17T03:43:32.257Z,3.53
2023-05-17T03:49:36.063Z,3.42
2023-05-17T03:55:41.100Z,3.08
2023-05-17T04:01:46.441Z,3.63
2023-05-17T04:07:49.904Z,3.30
2023-05-17T04:13:55.259Z,3.22
2023-05-17T04:19:58.772Z,3.42
2023-05-17T04:26:02.720Z,3.58
2023-05-17T04:32:08.171Z,3.95
2023-05-17T04:38:12.536Z,4.00
2023-05-17T04:44:15.962Z,3.63
2023-05-17T04:50:21.300Z,3.90
2023-05-17T04:56:24.842Z,3.80
2023-05-17T05:02:28.506Z,4.13
2023-05-17T05:08:34.979Z,4.55
2023-05-17T05:14:38.463Z,4.88
2023-05-17T05:20:42.077Z,4.25
2023-05-17T05:26:46.902Z,4.97
2023-05-17T05:32:50.807Z,5.43
2023-05-17T05:38:54.938Z,4.82
2023-05-17T05:44:59.778Z,5.20
2023-05-17T05:51:03.296Z,4.82
2023-05-17T05:57:06.844Z,5.30
2023-05-17T06:03:11.645Z,5.18
2023-05-17T06:09:15.098Z,4.75
2023-05-17T06:15:19.058Z,5.68
2023-05-17T06:21:24.219Z,5.53
2023-05-17T06:27:27.644Z,5.82
2023-05-17T06:33:31.237Z,5.85
2023-05-17T06:39:36.149Z,4.72
2023-05-17T06:45:39.657Z,4.13
2023-05-17T06:51:46.168Z,3.55
2023-05-17T06:57:51.380Z,3.85
2023-05-17T07:03:55.139Z,4.60
2023-05-17T07:09:58.713Z,3.97
2023-05-17T07:16:03.577Z,4.00
2023-05-17T07:22:07.304Z,4.38
2023-05-17T07:28:10.873Z,4.25
2023-05-17T07:34:16.139Z,3.65
2023-05-17T07:40:20.048Z,3.35
2023-05-17T07:46:23.588Z,2.90
2023-05-17T07:52:28.510Z,2.97
2023-05-17T07:58:32.205Z,2.88
2023-05-17T08:04:36.128Z,2.87
2023-05-17T08:10:41.027Z,2.88
2023-05-17T08:16:44.955Z,2.83
2023-05-17T08:22:48.396Z,2.90
2023-05-17T08:28:53.495Z,3.30
2023-05-17T08:34:57.917Z,2.58
2023-05-17T08:41:02.212Z,2.88
2023-05-17T08:47:09.499Z,2.70
2023-05-17T08:53:13.758Z,3.40
2023-05-17T08:59:17.513Z,3.10
2023-05-17T09:05:22.773Z,2.80
2023-05-17T09:11:27.669Z,2.30
2023-05-17T09:17:31.113Z,1.92
2023-05-17T09:23:35.929Z,2.92
2023-05-17T09:29:41.400Z,2.67
2023-05-17T09:35:44.907Z,2.67
2023-05-17T09:41:51.376Z,1.98
2023-05-17T09:47:55.138Z,2.40
2023-05-17T09:53:59.922Z,1.58
2023-05-17T10:00:08.679Z,1.92
2023-05-17T10:06:19.687Z,1.85
2023-05-17T10:12:33.247Z,3.50
2023-05-17T10:18:38.336Z,2.20
2023-05-17T10:24:42.066Z,1.75
2023-05-17T10:30:45.619Z,1.67
2023-05-17T10:36:51.403Z,2.20
2023-05-17T10:42:56.048Z,1.55
2023-05-17T10:49:00.552Z,1.73
2023-05-17T10:55:05.663Z,1.50
2023-05-17T11:01:09.200Z,1.73
2023-05-17T11:07:24.981Z,1.90
2023-05-17T11:13:29.990Z,1.80
2023-05-17T11:19:33.598Z,1.42
2023-05-17T11:25:37.702Z,2.22
2023-05-17T11:31:46.465Z,2.00
2023-05-17T11:37:53.712Z,1.50
2023-05-17T11:43:57.371Z,1.40
2023-05-17T11:50:04.712Z,3.38
2023-05-17T11:56:09.969Z,1.50
2023-05-17T12:02:27.809Z,1.38
2023-05-17T12:08:34.480Z,1.80
2023-05-17T12:14:37.986Z,1.20
2023-05-17T12:20:41.580Z,1.75
2023-05-17T12:26:46.852Z,1.85
2023-05-17T12:32:50.528Z,1.77
2023-05-17T12:38:54.306Z,2.28
2023-05-17T12:45:00.773Z,1.50
2023-05-17T12:51:12.115Z,2.05
2023-05-17T12:57:16.802Z,1.30
2023-05-17T13:03:21.805Z,2.40
2023-05-17T13:09:26.620Z,1.80
2023-05-17T13:15:31.237Z,1.55
2023-05-17T13:21:36.143Z,1.63
2023-05-17T13:27:45.227Z,1.52
2023-05-17T13:33:50.252Z,1.63
2023-05-17T13:39:56.577Z,1.80
2023-05-17T13:46:00.048Z,1.65
2023-05-17T13:52:03.676Z,2.10
2023-05-17T13:58:08.665Z,1.48
2023-05-17T14:04:12.281Z,1.70
2023-05-17T14:10:15.834Z,1.30
2023-05-17T14:16:22.274Z,1.92
2023-05-17T14:22:25.977Z,2.00
2023-05-17T14:28:29.464Z,1.70
2023-05-17T14:34:34.298Z,1.42
2023-05-17T14:40:37.765Z,1.30
2023-05-17T14:46:41.157Z,1.35
2023-05-17T14:52:46.022Z,1.75
2023-05-17T14:58:49.560Z,1.30
2023-05-17T15:04:53.143Z,1.33
2023-05-17T15:10:58.710Z,1.27
2023-05-17T15:17:03.810Z,1.35
2023-05-17T15:23:07.464Z,1.33
2023-05-17T15:29:12.414Z,1.80
2023-05-17T15:35:16.198Z,1.40
2023-05-17T15:41:21.825Z,1.30
2023-05-17T15:47:38.706Z,1.52
2023-05-17T15:53:46.030Z,1.25
2023-05-17T15:59:50.230Z,1.30
2023-05-17T16:05:55.298Z,1.92
2023-05-17T16:11:58.759Z,1.85
2023-05-17T16:18:02.350Z,1.55
2023-05-17T16:24:07.787Z,1.40
2023-05-17T16:30:11.451Z,1.92
2023-05-17T16:36:14.890Z,1.60
2023-05-17T16:42:19.756Z,1.40
2023-05-17T16:48:23.742Z,1.73
2023-05-17T16:54:28.254Z,1.83
2023-05-17T17:00:33.462Z,1.50
2023-05-17T17:06:38.122Z,1.55
2023-05-17T17:12:41.588Z,1.83
2023-05-17T17:18:47.136Z,2.03
2023-05-17T17:24:50.878Z,1.90
2023-05-17T17:30:54.452Z,1.92
2023-05-17T17:36:59.745Z,1.50
2023-05-17T17:43:03.677Z,1.50
2023-05-17T17:49:07.243Z,1.70
2023-05-17T17:55:13.956Z,1.58
2023-05-17T18:01:17.501Z,2.25
2023-05-17T18:07:21.111Z,1.50
2023-05-17T18:13:26.117Z,1.60
2023-05-17T18:19:29.628Z,2.03
2023-05-17T18:25:33.043Z,2.30
2023-05-17T18:31:38.163Z,1.88
2023-05-17T18:37:42.139Z,2.03
2023-05-17T18:43:45.576Z,1.65
2023-05-17T18:49:50.616Z,1.63
2023-05-17T18:55:54.185Z,2.10
2023-05-17T19:01:57.849Z,2.58
2023-05-17T19:08:02.847Z,2.10
2023-05-17T19:14:06.383Z,1.95
2023-05-17T19:20:10.763Z,1.70
2023-05-17T19:26:15.670Z,2.10
2023-05-17T19:32:20.149Z,2.08
2023-05-17T19:38:25.359Z,1.92
2023-05-17T19:44:30.717Z,2.50
2023-05-17T19:50:34.246Z,2.38
2023-05-17T19:56:38.172Z,2.20
2023-05-17T20:02:44.014Z,2.20
2023-05-17T20:08:47.531Z,2.33
2023-05-17T20:14:51.154Z,3.30
2023-05-17T20:20:56.450Z,2.30
2023-05-17T20:26:59.971Z,2.35
2023-05-17T20:33:03.515Z,2.42
2023-05-17T20:39:08.316Z,2.00
2023-05-17T20:45:14.466Z,2.28
2023-05-17T20:51:19.791Z,2.03
2023-05-17T20:57:25.018Z,2.05
2023-05-17T21:03:29.260Z,2.17
2023-05-17T21:09:33.825Z,2.58
2023-05-17T21:15:38.694Z,2.38
2023-05-17T21:21:42.219Z,2.28
2023-05-17T21:27:46.113Z,2.70
2023-05-17T21:33:51.752Z,2.47
2023-05-17T21:39:55.364Z,2.35
2023-05-17T21:45:58.872Z,2.13
2023-05-17T21:52:03.660Z,2.30
2023-05-17T21:58:07.183Z,2.47
2023-05-17T22:04:10.722Z,2.45
2023-05-17T22:10:15.691Z,2.65
2023-05-17T22:16:22.410Z,1.98
2023-05-17T22:22:26.547Z,2.25
2023-05-17T22:28:31.373Z,2.78
2023-05-17T22:34:34.804Z,2.25
2023-05-17T22:40:38.224Z,2.70
2023-05-17T22:46:44.077Z,2.30
2023-05-17T22:52:47.572Z,2.33
2023-05-17T22:58:51.646Z,2.30
2023-05-17T23:04:57.200Z,2.67
2023-05-17T23:11:01.789Z,2.35
2023-05-17T23:17:05.406Z,2.13
2023-05-17T23:23:10.347Z,2.50
2023-05-17T23:29:13.777Z,2.13
2023-05-17T23:35:17.276Z,2.60
2023-05-17T23:41:25.338Z,2.20
2023-05-17T23:47:29.128Z,2.20
2023-05-17T23:53:34.154Z,2.65
2023-05-17T23:59:39.014Z,2.65
